sensor_id;sensor_type;location;lat;lon;timestamp;temperature;humidity
37052;DHT22;22964;52.272;13.356;2023-04-15T00:00:37;13.20;77.50
37052;DHT22;22964;52.272;13.356;2023-04-15T00:03:03;13.20;77.40
37052;DHT22;22964;52.272;13.356;2023-04-15T00:05:30;13.20;77.60
37052;DHT22;22964;52.272;13.356;2023-04-15T00:07:56;13.20;77.40
37052;DHT22;22964;52.272;13.356;2023-04-15T00:10:24;13.20;77.40
37052;DHT22;22964;52.272;13.356;2023-04-15T00:12:50;13.20;77.40
37052;DHT22;22964;52.272;13.356;2023-04-15T00:15:16;13.20;77.40
37052;DHT22;22964;52.272;13.356;2023-04-15T00:17:42;13.30;77.40
37052;DHT22;22964;52.272;13.356;2023-04-15T00:20:08;13.20;77.40
37052;DHT22;22964;52.272;13.356;2023-04-15T00:22:34;13.20;77.40
37052;DHT22;22964;52.272;13.356;2023-04-15T00:25:01;13.30;77.40
37052;DHT22;22964;52.272;13.356;2023-04-15T00:27:27;13.30;77.50
37052;DHT22;22964;52.272;13.356;2023-04-15T00:29:54;13.30;77.40
37052;DHT22;22964;52.272;13.356;2023-04-15T00:32:19;13.30;77.50
37052;DHT22;22964;52.272;13.356;2023-04-15T00:34:45;13.30;77.50
37052;DHT22;22964;52.272;13.356;2023-04-15T00:37:11;13.30;77.50
37052;DHT22;22964;52.272;13.356;2023-04-15T00:39:37;13.30;77.60
37052;DHT22;22964;52.272;13.356;2023-04-15T00:42:06;13.30;77.50
37052;DHT22;22964;52.272;13.356;2023-04-15T00:44:32;13.30;77.70
37052;DHT22;22964;52.272;13.356;2023-04-15T00:46:59;13.30;77.50
37052;DHT22;22964;52.272;13.356;2023-04-15T00:49:25;13.30;77.70
37052;DHT22;22964;52.272;13.356;2023-04-15T00:51:51;13.30;77.60
37052;DHT22;22964;52.272;13.356;2023-04-15T00:54:17;13.30;77.60
37052;DHT22;22964;52.272;13.356;2023-04-15T00:56:43;13.30;77.60
37052;DHT22;22964;52.272;13.356;2023-04-15T00:59:09;13.30;77.70
37052;DHT22;22964;52.272;13.356;2023-04-15T01:01:35;13.30;77.70
37052;DHT22;22964;52.272;13.356;2023-04-15T01:04:01;13.30;77.60
37052;DHT22;22964;52.272;13.356;2023-04-15T01:06:29;13.30;77.50
37052;DHT22;22964;52.272;13.356;2023-04-15T01:08:55;13.30;77.50
37052;DHT22;22964;52.272;13.356;2023-04-15T01:11:22;13.40;77.60
37052;DHT22;22964;52.272;13.356;2023-04-15T01:13:49;13.30;77.50
37052;DHT22;22964;52.272;13.356;2023-04-15T01:16:17;13.30;77.40
37052;DHT22;22964;52.272;13.356;2023-04-15T01:18:43;13.30;77.50
37052;DHT22;22964;52.272;13.356;2023-04-15T01:21:09;13.40;77.50
37052;DHT22;22964;52.272;13.356;2023-04-15T01:23:37;13.30;77.40
37052;DHT22;22964;52.272;13.356;2023-04-15T01:26:05;13.40;77.50
37052;DHT22;22964;52.272;13.356;2023-04-15T01:28:32;13.40;77.50
37052;DHT22;22964;52.272;13.356;2023-04-15T01:31:11;13.40;77.50
37052;DHT22;22964;52.272;13.356;2023-04-15T01:33:41;13.40;77.90
37052;DHT22;22964;52.272;13.356;2023-04-15T01:36:08;13.40;77.50
37052;DHT22;22964;52.272;13.356;2023-04-15T01:38:36;13.40;77.50
37052;DHT22;22964;52.272;13.356;2023-04-15T01:41:02;13.30;77.40
37052;DHT22;22964;52.272;13.356;2023-04-15T01:43:36;13.40;77.50
37052;DHT22;22964;52.272;13.356;2023-04-15T01:46:02;13.40;77.50
37052;DHT22;22964;52.272;13.356;2023-04-15T01:48:28;13.40;77.50
37052;DHT22;22964;52.272;13.356;2023-04-15T01:50:55;13.40;77.50
37052;DHT22;22964;52.272;13.356;2023-04-15T01:53:23;13.40;77.50
37052;DHT22;22964;52.272;13.356;2023-04-15T01:55:49;13.40;77.60
37052;DHT22;22964;52.272;13.356;2023-04-15T01:58:19;13.40;77.50
37052;DHT22;22964;52.272;13.356;2023-04-15T02:00:46;13.30;77.50
37052;DHT22;22964;52.272;13.356;2023-04-15T02:03:12;13.40;77.50
37052;DHT22;22964;52.272;13.356;2023-04-15T02:05:38;13.40;77.60
37052;DHT22;22964;52.272;13.356;2023-04-15T02:08:03;13.40;77.50
37052;DHT22;22964;52.272;13.356;2023-04-15T02:10:29;13.40;77.50
37052;DHT22;22964;52.272;13.356;2023-04-15T02:12:55;13.40;77.60
37052;DHT22;22964;52.272;13.356;2023-04-15T02:15:21;13.40;77.60
37052;DHT22;22964;52.272;13.356;2023-04-15T02:17:49;13.40;77.70
37052;DHT22;22964;52.272;13.356;2023-04-15T02:20:18;13.40;77.70
37052;DHT22;22964;52.272;13.356;2023-04-15T02:22:44;13.40;77.70
37052;DHT22;22964;52.272;13.356;2023-04-15T02:25:10;13.40;77.70
37052;DHT22;22964;52.272;13.356;2023-04-15T02:27:36;13.40;77.50
37052;DHT22;22964;52.272;13.356;2023-04-15T02:30:02;13.40;77.50
37052;DHT22;22964;52.272;13.356;2023-04-15T02:32:28;13.40;77.60
37052;DHT22;22964;52.272;13.356;2023-04-15T02:34:54;13.40;77.50
37052;DHT22;22964;52.272;13.356;2023-04-15T02:37:20;13.40;77.60
37052;DHT22;22964;52.272;13.356;2023-04-15T02:39:46;13.40;77.50
37052;DHT22;22964;52.272;13.356;2023-04-15T02:42:14;13.40;77.50
37052;DHT22;22964;52.272;13.356;2023-04-15T02:44:40;13.40;77.60
37052;DHT22;22964;52.272;13.356;2023-04-15T02:47:06;13.40;77.60
37052;DHT22;22964;52.272;13.356;2023-04-15T02:49:32;13.40;77.70
37052;DHT22;22964;52.272;13.356;2023-04-15T02:51:59;13.40;77.70
37052;DHT22;22964;52.272;13.356;2023-04-15T02:54:25;13.40;77.70
37052;DHT22;22964;52.272;13.356;2023-04-15T02:56:53;13.40;77.80
37052;DHT22;22964;52.272;13.356;2023-04-15T02:59:21;13.40;77.70
37052;DHT22;22964;52.272;13.356;2023-04-15T03:01:47;13.40;78.10
37052;DHT22;22964;52.272;13.356;2023-04-15T03:04:12;13.40;77.60
37052;DHT22;22964;52.272;13.356;2023-04-15T03:06:38;13.40;77.70
37052;DHT22;22964;52.272;13.356;2023-04-15T03:09:06;13.40;77.70
37052;DHT22;22964;52.272;13.356;2023-04-15T03:11:35;13.40;77.60
37052;DHT22;22964;52.272;13.356;2023-04-15T03:14:06;13.40;77.70
37052;DHT22;22964;52.272;13.356;2023-04-15T03:16:34;13.30;77.70
37052;DHT22;22964;52.272;13.356;2023-04-15T03:19:00;13.30;77.70
37052;DHT22;22964;52.272;13.356;2023-04-15T03:21:26;13.30;77.80
37052;DHT22;22964;52.272;13.356;2023-04-15T03:23:52;13.30;77.80
37052;DHT22;22964;52.272;13.356;2023-04-15T03:26:28;13.30;77.90
37052;DHT22;22964;52.272;13.356;2023-04-15T03:28:58;13.30;78.10
37052;DHT22;22964;52.272;13.356;2023-04-15T03:31:24;13.30;77.90
37052;DHT22;22964;52.272;13.356;2023-04-15T03:33:49;13.30;78.10
37052;DHT22;22964;52.272;13.356;2023-04-15T03:36:15;13.30;78.30
37052;DHT22;22964;52.272;13.356;2023-04-15T03:38:41;13.30;78.20
37052;DHT22;22964;52.272;13.356;2023-04-15T03:41:07;13.30;78.10
37052;DHT22;22964;52.272;13.356;2023-04-15T03:43:34;13.30;78.30
37052;DHT22;22964;52.272;13.356;2023-04-15T03:46:00;13.30;78.30
37052;DHT22;22964;52.272;13.356;2023-04-15T03:48:26;13.30;78.40
37052;DHT22;22964;52.272;13.356;2023-04-15T03:50:52;13.30;78.50
37052;DHT22;22964;52.272;13.356;2023-04-15T03:53:17;13.30;78.60
37052;DHT22;22964;52.272;13.356;2023-04-15T03:55:43;13.30;78.60
37052;DHT22;22964;52.272;13.356;2023-04-15T03:58:09;13.30;78.70
37052;DHT22;22964;52.272;13.356;2023-04-15T04:00:38;13.30;78.70
37052;DHT22;22964;52.272;13.356;2023-04-15T04:03:03;13.30;78.60
37052;DHT22;22964;52.272;13.356;2023-04-15T04:05:29;13.30;78.80
37052;DHT22;22964;52.272;13.356;2023-04-15T04:07:55;13.30;78.80
37052;DHT22;22964;52.272;13.356;2023-04-15T04:10:21;13.30;78.90
37052;DHT22;22964;52.272;13.356;2023-04-15T04:12:47;13.30;78.90
37052;DHT22;22964;52.272;13.356;2023-04-15T04:15:13;13.30;79.10
37052;DHT22;22964;52.272;13.356;2023-04-15T04:17:38;13.30;79.10
37052;DHT22;22964;52.272;13.356;2023-04-15T04:20:04;13.30;79.10
37052;DHT22;22964;52.272;13.356;2023-04-15T04:22:36;13.30;79.10
37052;DHT22;22964;52.272;13.356;2023-04-15T04:25:01;13.30;79.30
37052;DHT22;22964;52.272;13.356;2023-04-15T04:27:27;13.40;79.30
37052;DHT22;22964;52.272;13.356;2023-04-15T04:29:53;13.40;79.40
37052;DHT22;22964;52.272;13.356;2023-04-15T04:32:18;13.40;79.50
37052;DHT22;22964;52.272;13.356;2023-04-15T04:34:44;13.40;79.40
37052;DHT22;22964;52.272;13.356;2023-04-15T04:37:10;13.40;79.40
37052;DHT22;22964;52.272;13.356;2023-04-15T04:39:35;13.40;79.40
37052;DHT22;22964;52.272;13.356;2023-04-15T04:42:01;13.40;79.30
37052;DHT22;22964;52.272;13.356;2023-04-15T04:44:27;13.40;79.40
37052;DHT22;22964;52.272;13.356;2023-04-15T04:46:53;13.40;79.40
37052;DHT22;22964;52.272;13.356;2023-04-15T04:49:18;13.40;79.50
37052;DHT22;22964;52.272;13.356;2023-04-15T04:51:44;13.40;79.50
37052;DHT22;22964;52.272;13.356;2023-04-15T04:54:11;13.40;79.60
37052;DHT22;22964;52.272;13.356;2023-04-15T04:56:37;13.40;79.60
37052;DHT22;22964;52.272;13.356;2023-04-15T04:59:04;13.40;79.60
37052;DHT22;22964;52.272;13.356;2023-04-15T05:01:30;13.40;79.60
37052;DHT22;22964;52.272;13.356;2023-04-15T05:03:55;13.40;79.70
37052;DHT22;22964;52.272;13.356;2023-04-15T05:06:21;13.40;79.70
37052;DHT22;22964;52.272;13.356;2023-04-15T05:08:47;13.40;79.70
37052;DHT22;22964;52.272;13.356;2023-04-15T05:11:13;13.40;79.70
37052;DHT22;22964;52.272;13.356;2023-04-15T05:13:39;13.40;79.80
37052;DHT22;22964;52.272;13.356;2023-04-15T05:16:05;13.40;80.10
37052;DHT22;22964;52.272;13.356;2023-04-15T05:18:31;13.40;80.20
37052;DHT22;22964;52.272;13.356;2023-04-15T05:20:57;13.30;80.10
37052;DHT22;22964;52.272;13.356;2023-04-15T05:23:22;13.40;80.30
37052;DHT22;22964;52.272;13.356;2023-04-15T05:25:48;13.40;80.50
37052;DHT22;22964;52.272;13.356;2023-04-15T05:28:14;13.40;80.60
37052;DHT22;22964;52.272;13.356;2023-04-15T05:30:40;13.30;80.60
37052;DHT22;22964;52.272;13.356;2023-04-15T05:33:06;13.30;80.60
37052;DHT22;22964;52.272;13.356;2023-04-15T05:35:31;13.40;81.00
37052;DHT22;22964;52.272;13.356;2023-04-15T05:37:57;13.40;81.00
37052;DHT22;22964;52.272;13.356;2023-04-15T05:40:23;13.40;81.10
37052;DHT22;22964;52.272;13.356;2023-04-15T05:42:48;13.40;81.40
37052;DHT22;22964;52.272;13.356;2023-04-15T05:45:14;13.40;81.50
37052;DHT22;22964;52.272;13.356;2023-04-15T05:47:40;13.40;81.80
37052;DHT22;22964;52.272;13.356;2023-04-15T05:50:06;13.40;82.00
37052;DHT22;22964;52.272;13.356;2023-04-15T05:52:32;13.40;82.10
37052;DHT22;22964;52.272;13.356;2023-04-15T05:54:58;13.40;82.00
37052;DHT22;22964;52.272;13.356;2023-04-15T05:57:24;13.50;82.20
37052;DHT22;22964;52.272;13.356;2023-04-15T05:59:50;13.50;82.40
37052;DHT22;22964;52.272;13.356;2023-04-15T06:02:19;13.50;82.00
37052;DHT22;22964;52.272;13.356;2023-04-15T06:04:45;13.50;82.40
37052;DHT22;22964;52.272;13.356;2023-04-15T06:07:11;13.50;82.00
37052;DHT22;22964;52.272;13.356;2023-04-15T06:09:37;13.60;82.30
37052;DHT22;22964;52.272;13.356;2023-04-15T06:12:02;13.60;82.30
37052;DHT22;22964;52.272;13.356;2023-04-15T06:14:28;13.60;82.50
37052;DHT22;22964;52.272;13.356;2023-04-15T06:16:54;13.60;82.40
37052;DHT22;22964;52.272;13.356;2023-04-15T06:19:20;13.60;82.60
37052;DHT22;22964;52.272;13.356;2023-04-15T06:21:45;13.60;82.70
37052;DHT22;22964;52.272;13.356;2023-04-15T06:24:11;13.60;83.00
37052;DHT22;22964;52.272;13.356;2023-04-15T06:26:37;13.60;83.20
37052;DHT22;22964;52.272;13.356;2023-04-15T06:29:03;13.60;83.40
37052;DHT22;22964;52.272;13.356;2023-04-15T06:31:29;13.60;83.70
37052;DHT22;22964;52.272;13.356;2023-04-15T06:33:55;13.60;83.40
37052;DHT22;22964;52.272;13.356;2023-04-15T06:36:20;13.60;83.30
37052;DHT22;22964;52.272;13.356;2023-04-15T06:38:46;13.60;83.20
37052;DHT22;22964;52.272;13.356;2023-04-15T06:41:12;13.60;83.10
37052;DHT22;22964;52.272;13.356;2023-04-15T06:43:38;13.60;83.10
37052;DHT22;22964;52.272;13.356;2023-04-15T06:46:04;13.60;83.10
37052;DHT22;22964;52.272;13.356;2023-04-15T06:48:30;13.70;83.10
37052;DHT22;22964;52.272;13.356;2023-04-15T06:50:55;13.60;82.90
37052;DHT22;22964;52.272;13.356;2023-04-15T06:53:24;13.70;82.90
37052;DHT22;22964;52.272;13.356;2023-04-15T06:55:51;13.70;82.90
37052;DHT22;22964;52.272;13.356;2023-04-15T06:58:17;13.70;82.60
37052;DHT22;22964;52.272;13.356;2023-04-15T07:00:42;13.70;82.50
37052;DHT22;22964;52.272;13.356;2023-04-15T07:03:09;13.70;82.60
37052;DHT22;22964;52.272;13.356;2023-04-15T07:05:37;13.70;82.50
37052;DHT22;22964;52.272;13.356;2023-04-15T07:08:03;13.70;82.40
37052;DHT22;22964;52.272;13.356;2023-04-15T07:10:29;13.70;82.10
37052;DHT22;22964;52.272;13.356;2023-04-15T07:12:55;13.70;82.10
37052;DHT22;22964;52.272;13.356;2023-04-15T07:15:21;13.80;82.10
37052;DHT22;22964;52.272;13.356;2023-04-15T07:17:48;13.70;82.20
37052;DHT22;22964;52.272;13.356;2023-04-15T07:20:13;13.70;82.10
37052;DHT22;22964;52.272;13.356;2023-04-15T07:22:39;13.70;82.10
37052;DHT22;22964;52.272;13.356;2023-04-15T07:25:05;13.70;82.30
37052;DHT22;22964;52.272;13.356;2023-04-15T07:27:32;13.60;82.70
37052;DHT22;22964;52.272;13.356;2023-04-15T07:29:58;13.60;82.20
37052;DHT22;22964;52.272;13.356;2023-04-15T07:32:23;13.60;82.30
37052;DHT22;22964;52.272;13.356;2023-04-15T07:34:49;13.60;82.30
37052;DHT22;22964;52.272;13.356;2023-04-15T07:37:15;13.60;83.30
37052;DHT22;22964;52.272;13.356;2023-04-15T07:39:40;13.60;82.50
37052;DHT22;22964;52.272;13.356;2023-04-15T07:42:07;13.60;82.60
37052;DHT22;22964;52.272;13.356;2023-04-15T07:44:33;13.60;82.70
37052;DHT22;22964;52.272;13.356;2023-04-15T07:46:58;13.60;82.80
37052;DHT22;22964;52.272;13.356;2023-04-15T07:49:24;13.60;82.80
37052;DHT22;22964;52.272;13.356;2023-04-15T07:51:50;13.60;82.60
37052;DHT22;22964;52.272;13.356;2023-04-15T07:54:16;13.60;82.50
37052;DHT22;22964;52.272;13.356;2023-04-15T07:56:42;13.60;82.40
37052;DHT22;22964;52.272;13.356;2023-04-15T07:59:08;13.60;82.30
37052;DHT22;22964;52.272;13.356;2023-04-15T08:01:35;13.60;82.40
37052;DHT22;22964;52.272;13.356;2023-04-15T08:04:01;13.60;82.50
37052;DHT22;22964;52.272;13.356;2023-04-15T08:06:27;13.60;82.60
37052;DHT22;22964;52.272;13.356;2023-04-15T08:08:53;13.60;82.50
37052;DHT22;22964;52.272;13.356;2023-04-15T08:11:20;13.60;82.70
37052;DHT22;22964;52.272;13.356;2023-04-15T08:13:46;13.60;82.80
37052;DHT22;22964;52.272;13.356;2023-04-15T08:16:20;13.60;82.80
37052;DHT22;22964;52.272;13.356;2023-04-15T08:18:51;13.60;82.80
37052;DHT22;22964;52.272;13.356;2023-04-15T08:21:18;13.60;82.80
37052;DHT22;22964;52.272;13.356;2023-04-15T08:23:45;13.60;82.70
37052;DHT22;22964;52.272;13.356;2023-04-15T08:26:11;13.50;82.70
37052;DHT22;22964;52.272;13.356;2023-04-15T08:28:38;13.50;82.80
37052;DHT22;22964;52.272;13.356;2023-04-15T08:31:05;13.50;83.00
37052;DHT22;22964;52.272;13.356;2023-04-15T08:33:30;13.50;83.20
37052;DHT22;22964;52.272;13.356;2023-04-15T08:35:56;13.40;83.20
37052;DHT22;22964;52.272;13.356;2023-04-15T08:38:22;13.40;83.50
37052;DHT22;22964;52.272;13.356;2023-04-15T08:40:48;13.40;83.70
37052;DHT22;22964;52.272;13.356;2023-04-15T08:43:20;13.40;83.80
37052;DHT22;22964;52.272;13.356;2023-04-15T08:45:47;13.40;83.90
37052;DHT22;22964;52.272;13.356;2023-04-15T08:48:16;13.40;83.70
37052;DHT22;22964;52.272;13.356;2023-04-15T08:50:42;13.40;84.10
37052;DHT22;22964;52.272;13.356;2023-04-15T08:53:09;13.50;84.10
37052;DHT22;22964;52.272;13.356;2023-04-15T08:55:35;13.40;84.10
37052;DHT22;22964;52.272;13.356;2023-04-15T08:58:04;13.50;84.20
37052;DHT22;22964;52.272;13.356;2023-04-15T09:00:31;13.50;84.50
37052;DHT22;22964;52.272;13.356;2023-04-15T09:02:58;13.60;84.70
37052;DHT22;22964;52.272;13.356;2023-04-15T09:05:24;13.60;84.60
37052;DHT22;22964;52.272;13.356;2023-04-15T09:07:50;13.70;84.70
37052;DHT22;22964;52.272;13.356;2023-04-15T09:10:16;13.70;84.20
37052;DHT22;22964;52.272;13.356;2023-04-15T09:12:43;13.70;83.90
37052;DHT22;22964;52.272;13.356;2023-04-15T09:15:11;13.80;83.70
37052;DHT22;22964;52.272;13.356;2023-04-15T09:17:44;13.80;83.50
37052;DHT22;22964;52.272;13.356;2023-04-15T09:20:14;13.80;83.30
37052;DHT22;22964;52.272;13.356;2023-04-15T09:22:42;13.80;83.20
37052;DHT22;22964;52.272;13.356;2023-04-15T09:27:53;13.90;83.00
37052;DHT22;22964;52.272;13.356;2023-04-15T09:30:19;13.90;82.90
37052;DHT22;22964;52.272;13.356;2023-04-15T09:32:53;13.90;82.50
37052;DHT22;22964;52.272;13.356;2023-04-15T09:35:20;13.90;82.50
37052;DHT22;22964;52.272;13.356;2023-04-15T09:37:48;13.90;82.60
37052;DHT22;22964;52.272;13.356;2023-04-15T09:40:14;14.00;82.80
37052;DHT22;22964;52.272;13.356;2023-04-15T09:42:56;14.00;82.70
37052;DHT22;22964;52.272;13.356;2023-04-15T09:45:22;14.00;82.70
37052;DHT22;22964;52.272;13.356;2023-04-15T09:47:48;14.00;82.60
37052;DHT22;22964;52.272;13.356;2023-04-15T09:50:16;14.00;82.40
37052;DHT22;22964;52.272;13.356;2023-04-15T09:52:43;14.00;82.60
37052;DHT22;22964;52.272;13.356;2023-04-15T09:55:09;14.00;82.70
37052;DHT22;22964;52.272;13.356;2023-04-15T09:57:36;14.00;82.70
37052;DHT22;22964;52.272;13.356;2023-04-15T10:00:06;13.90;82.70
37052;DHT22;22964;52.272;13.356;2023-04-15T10:02:33;13.90;82.70
37052;DHT22;22964;52.272;13.356;2023-04-15T10:05:00;13.90;82.90
37052;DHT22;22964;52.272;13.356;2023-04-15T10:07:27;14.00;83.10
37052;DHT22;22964;52.272;13.356;2023-04-15T10:09:55;13.90;83.00
37052;DHT22;22964;52.272;13.356;2023-04-15T10:12:21;13.90;83.10
37052;DHT22;22964;52.272;13.356;2023-04-15T10:14:51;13.90;83.20
37052;DHT22;22964;52.272;13.356;2023-04-15T10:17:21;13.90;83.30
37052;DHT22;22964;52.272;13.356;2023-04-15T10:19:47;13.90;83.40
37052;DHT22;22964;52.272;13.356;2023-04-15T10:22:14;13.90;83.40
37052;DHT22;22964;52.272;13.356;2023-04-15T10:24:40;13.90;83.40
37052;DHT22;22964;52.272;13.356;2023-04-15T10:27:07;13.90;83.40
37052;DHT22;22964;52.272;13.356;2023-04-15T10:29:33;13.90;83.40
37052;DHT22;22964;52.272;13.356;2023-04-15T10:32:00;13.90;83.60
37052;DHT22;22964;52.272;13.356;2023-04-15T10:34:26;13.90;83.50
37052;DHT22;22964;52.272;13.356;2023-04-15T10:37:00;13.90;83.60
37052;DHT22;22964;52.272;13.356;2023-04-15T10:44:36;13.90;83.80
37052;DHT22;22964;52.272;13.356;2023-04-15T10:47:15;14.00;83.70
37052;DHT22;22964;52.272;13.356;2023-04-15T10:49:45;14.00;83.90
37052;DHT22;22964;52.272;13.356;2023-04-15T10:52:11;14.00;83.80
37052;DHT22;22964;52.272;13.356;2023-04-15T10:54:38;14.00;83.60
37052;DHT22;22964;52.272;13.356;2023-04-15T10:59:37;14.10;83.70
37052;DHT22;22964;52.272;13.356;2023-04-15T11:02:05;14.10;83.70
37052;DHT22;22964;52.272;13.356;2023-04-15T11:07:55;14.10;83.80
37052;DHT22;22964;52.272;13.356;2023-04-15T11:13:04;14.20;83.50
37052;DHT22;22964;52.272;13.356;2023-04-15T11:18:12;14.20;83.60
37052;DHT22;22964;52.272;13.356;2023-04-15T11:20:39;14.20;83.80
37052;DHT22;22964;52.272;13.356;2023-04-15T11:23:06;14.20;84.50
37052;DHT22;22964;52.272;13.356;2023-04-15T11:25:33;14.20;83.50
37052;DHT22;22964;52.272;13.356;2023-04-15T11:28:00;14.10;83.60
37052;DHT22;22964;52.272;13.356;2023-04-15T11:30:32;14.10;83.70
37052;DHT22;22964;52.272;13.356;2023-04-15T11:33:09;14.20;83.70
37052;DHT22;22964;52.272;13.356;2023-04-15T11:35:36;14.20;83.80
37052;DHT22;22964;52.272;13.356;2023-04-15T11:38:08;14.20;83.80
37052;DHT22;22964;52.272;13.356;2023-04-15T11:40:35;14.20;83.90
37052;DHT22;22964;52.272;13.356;2023-04-15T11:43:07;14.10;83.70
37052;DHT22;22964;52.272;13.356;2023-04-15T11:45:34;14.20;83.80
37052;DHT22;22964;52.272;13.356;2023-04-15T11:48:10;14.20;83.90
37052;DHT22;22964;52.272;13.356;2023-04-15T11:50:38;14.10;84.30
37052;DHT22;22964;52.272;13.356;2023-04-15T11:53:07;14.20;84.10
37052;DHT22;22964;52.272;13.356;2023-04-15T11:55:47;14.20;84.10
37052;DHT22;22964;52.272;13.356;2023-04-15T11:58:23;14.20;84.40
37052;DHT22;22964;52.272;13.356;2023-04-15T12:00:59;14.20;84.10
37052;DHT22;22964;52.272;13.356;2023-04-15T12:11:14;14.30;84.40
37052;DHT22;22964;52.272;13.356;2023-04-15T12:13:43;14.30;84.00
37052;DHT22;22964;52.272;13.356;2023-04-15T12:16:10;14.30;84.10
37052;DHT22;22964;52.272;13.356;2023-04-15T12:18:38;14.40;84.00
37052;DHT22;22964;52.272;13.356;2023-04-15T12:21:10;14.40;84.30
37052;DHT22;22964;52.272;13.356;2023-04-15T12:23:37;14.40;84.10
37052;DHT22;22964;52.272;13.356;2023-04-15T12:26:04;14.50;84.50
37052;DHT22;22964;52.272;13.356;2023-04-15T12:28:33;14.50;83.70
37052;DHT22;22964;52.272;13.356;2023-04-15T12:31:09;14.50;83.70
37052;DHT22;22964;52.272;13.356;2023-04-15T12:33:36;14.50;84.00
37052;DHT22;22964;52.272;13.356;2023-04-15T12:36:02;14.50;83.70
37052;DHT22;22964;52.272;13.356;2023-04-15T12:38:29;14.50;83.80
37052;DHT22;22964;52.272;13.356;2023-04-15T12:40:56;14.50;83.80
37052;DHT22;22964;52.272;13.356;2023-04-15T12:43:22;14.50;83.70
37052;DHT22;22964;52.272;13.356;2023-04-15T12:45:48;14.60;84.10
37052;DHT22;22964;52.272;13.356;2023-04-15T12:48:14;14.60;84.20
37052;DHT22;22964;52.272;13.356;2023-04-15T12:50:39;14.60;84.00
37052;DHT22;22964;52.272;13.356;2023-04-15T12:53:05;14.60;84.30
37052;DHT22;22964;52.272;13.356;2023-04-15T12:55:31;14.60;84.10
37052;DHT22;22964;52.272;13.356;2023-04-15T12:57:57;14.60;83.90
37052;DHT22;22964;52.272;13.356;2023-04-15T13:00:22;14.70;84.00
37052;DHT22;22964;52.272;13.356;2023-04-15T13:02:50;14.60;83.90
37052;DHT22;22964;52.272;13.356;2023-04-15T13:05:16;14.70;84.00
37052;DHT22;22964;52.272;13.356;2023-04-15T13:07:42;14.70;84.00
37052;DHT22;22964;52.272;13.356;2023-04-15T13:10:08;14.70;83.90
37052;DHT22;22964;52.272;13.356;2023-04-15T13:12:34;14.60;84.00
37052;DHT22;22964;52.272;13.356;2023-04-15T13:15:04;14.60;84.00
37052;DHT22;22964;52.272;13.356;2023-04-15T13:17:30;14.70;84.00
37052;DHT22;22964;52.272;13.356;2023-04-15T13:19:56;14.60;84.00
37052;DHT22;22964;52.272;13.356;2023-04-15T13:22:22;14.70;84.30
37052;DHT22;22964;52.272;13.356;2023-04-15T13:24:48;14.60;84.30
37052;DHT22;22964;52.272;13.356;2023-04-15T13:27:14;14.70;84.50
37052;DHT22;22964;52.272;13.356;2023-04-15T13:29:40;14.70;84.60
37052;DHT22;22964;52.272;13.356;2023-04-15T13:32:05;14.60;84.50
37052;DHT22;22964;52.272;13.356;2023-04-15T13:34:31;14.70;84.60
37052;DHT22;22964;52.272;13.356;2023-04-15T13:36:57;14.70;84.70
37052;DHT22;22964;52.272;13.356;2023-04-15T13:39:23;14.70;84.50
37052;DHT22;22964;52.272;13.356;2023-04-15T13:41:48;14.80;84.60
37052;DHT22;22964;52.272;13.356;2023-04-15T13:44:14;14.80;84.70
37052;DHT22;22964;52.272;13.356;2023-04-15T13:46:40;14.80;84.40
37052;DHT22;22964;52.272;13.356;2023-04-15T13:49:09;14.80;84.40
37052;DHT22;22964;52.272;13.356;2023-04-15T13:51:34;14.70;84.50
37052;DHT22;22964;52.272;13.356;2023-04-15T13:54:06;14.70;84.60
37052;DHT22;22964;52.272;13.356;2023-04-15T13:56:32;14.80;84.70
37052;DHT22;22964;52.272;13.356;2023-04-15T13:58:57;14.80;84.70
37052;DHT22;22964;52.272;13.356;2023-04-15T14:01:26;14.80;84.60
37052;DHT22;22964;52.272;13.356;2023-04-15T14:03:52;14.80;84.60
37052;DHT22;22964;52.272;13.356;2023-04-15T14:06:18;14.80;84.50
37052;DHT22;22964;52.272;13.356;2023-04-15T14:08:45;14.80;84.50
37052;DHT22;22964;52.272;13.356;2023-04-15T14:11:11;14.90;84.50
37052;DHT22;22964;52.272;13.356;2023-04-15T14:13:36;15.00;84.60
37052;DHT22;22964;52.272;13.356;2023-04-15T14:16:02;15.00;84.50
37052;DHT22;22964;52.272;13.356;2023-04-15T14:18:28;15.00;84.40
37052;DHT22;22964;52.272;13.356;2023-04-15T14:20:55;15.10;84.30
37052;DHT22;22964;52.272;13.356;2023-04-15T14:23:21;15.10;84.30
37052;DHT22;22964;52.272;13.356;2023-04-15T14:25:47;15.10;84.10
37052;DHT22;22964;52.272;13.356;2023-04-15T14:28:13;15.20;84.00
37052;DHT22;22964;52.272;13.356;2023-04-15T14:30:38;15.20;83.90
37052;DHT22;22964;52.272;13.356;2023-04-15T14:33:04;15.20;83.70
37052;DHT22;22964;52.272;13.356;2023-04-15T14:35:30;15.20;83.60
37052;DHT22;22964;52.272;13.356;2023-04-15T14:37:57;15.20;83.50
37052;DHT22;22964;52.272;13.356;2023-04-15T14:40:22;15.20;83.50
37052;DHT22;22964;52.272;13.356;2023-04-15T14:42:48;15.20;83.50
37052;DHT22;22964;52.272;13.356;2023-04-15T14:45:14;15.30;83.30
37052;DHT22;22964;52.272;13.356;2023-04-15T14:47:39;15.30;83.20
37052;DHT22;22964;52.272;13.356;2023-04-15T14:50:06;15.30;83.10
37052;DHT22;22964;52.272;13.356;2023-04-15T14:52:31;15.30;83.10
37052;DHT22;22964;52.272;13.356;2023-04-15T14:55:07;15.30;83.00
37052;DHT22;22964;52.272;13.356;2023-04-15T14:57:35;15.30;83.00
37052;DHT22;22964;52.272;13.356;2023-04-15T15:00:02;15.30;83.00
37052;DHT22;22964;52.272;13.356;2023-04-15T15:02:28;15.20;82.80
37052;DHT22;22964;52.272;13.356;2023-04-15T15:04:55;15.30;82.70
37052;DHT22;22964;52.272;13.356;2023-04-15T15:07:22;15.20;82.70
37052;DHT22;22964;52.272;13.356;2023-04-15T15:09:47;15.20;82.60
37052;DHT22;22964;52.272;13.356;2023-04-15T15:12:13;15.20;82.50
37052;DHT22;22964;52.272;13.356;2023-04-15T15:14:39;15.20;82.40
37052;DHT22;22964;52.272;13.356;2023-04-15T15:17:05;15.20;82.40
37052;DHT22;22964;52.272;13.356;2023-04-15T15:19:30;15.30;82.40
37052;DHT22;22964;52.272;13.356;2023-04-15T15:21:56;15.30;82.40
37052;DHT22;22964;52.272;13.356;2023-04-15T15:24:22;15.30;82.30
37052;DHT22;22964;52.272;13.356;2023-04-15T15:26:47;15.30;82.30
37052;DHT22;22964;52.272;13.356;2023-04-15T15:29:13;15.30;82.10
37052;DHT22;22964;52.272;13.356;2023-04-15T15:31:39;15.40;82.10
37052;DHT22;22964;52.272;13.356;2023-04-15T15:34:04;15.40;81.90
37052;DHT22;22964;52.272;13.356;2023-04-15T15:36:30;15.40;81.60
37052;DHT22;22964;52.272;13.356;2023-04-15T15:38:59;15.30;81.50